sensor_id;sensor_type;location;lat;lon;timestamp;P1;durP1;ratioP1;P2;durP2;ratioP2
39256;SDS011;24958;48.066;11.038;2022-10-16T00:01:51;3.35;;;2.25;;
39256;SDS011;24958;48.066;11.038;2022-10-16T00:04:17;2.50;;;2.05;;
39256;SDS011;24958;48.066;11.038;2022-10-16T00:06:43;2.97;;;2.13;;
39256;SDS011;24958;48.066;11.038;2022-10-16T00:09:09;2.55;;;1.90;;
39256;SDS011;24958;48.066;11.038;2022-10-16T00:11:36;3.05;;;1.70;;
39256;SDS011;24958;48.066;11.038;2022-10-16T00:14:04;4.13;;;1.80;;
39256;SDS011;24958;48.066;11.038;2022-10-16T00:16:30;2.35;;;1.80;;
39256;SDS011;24958;48.066;11.038;2022-10-16T00:18:57;4.55;;;2.40;;
39256;SDS011;24958;48.066;11.038;2022-10-16T00:21:24;2.10;;;2.00;;
39256;SDS011;24958;48.066;11.038;2022-10-16T00:23:54;2.10;;;1.90;;
39256;SDS011;24958;48.066;11.038;2022-10-16T00:26:21;2.60;;;1.83;;
39256;SDS011;24958;48.066;11.038;2022-10-16T00:28:48;3.25;;;2.10;;
39256;SDS011;24958;48.066;11.038;2022-10-16T00:31:14;2.88;;;1.80;;
39256;SDS011;24958;48.066;11.038;2022-10-16T00:33:41;2.03;;;1.80;;
39256;SDS011;24958;48.066;11.038;2022-10-16T00:36:09;1.80;;;1.70;;
39256;SDS011;24958;48.066;11.038;2022-10-16T00:38:35;3.10;;;2.05;;
39256;SDS011;24958;48.066;11.038;2022-10-16T00:41:02;3.10;;;2.05;;
39256;SDS011;24958;48.066;11.038;2022-10-16T00:43:42;2.25;;;1.80;;
39256;SDS011;24958;48.066;11.038;2022-10-16T00:46:11;2.30;;;1.75;;
39256;SDS011;24958;48.066;11.038;2022-10-16T00:48:38;2.17;;;1.80;;
39256;SDS011;24958;48.066;11.038;2022-10-16T00:51:04;2.83;;;1.90;;
39256;SDS011;24958;48.066;11.038;2022-10-16T00:53:31;2.45;;;1.80;;
39256;SDS011;24958;48.066;11.038;2022-10-16T00:55:57;2.67;;;2.38;;
39256;SDS011;24958;48.066;11.038;2022-10-16T00:58:23;2.13;;;1.77;;
39256;SDS011;24958;48.066;11.038;2022-10-16T01:00:49;3.67;;;1.80;;
39256;SDS011;24958;48.066;11.038;2022-10-16T01:03:48;3.97;;;1.83;;
39256;SDS011;24958;48.066;11.038;2022-10-16T01:11:12;3.42;;;1.65;;
39256;SDS011;24958;48.066;11.038;2022-10-16T01:13:42;2.13;;;1.80;;
39256;SDS011;24958;48.066;11.038;2022-10-16T01:18:45;4.35;;;2.00;;
39256;SDS011;24958;48.066;11.038;2022-10-16T01:31:44;2.72;;;1.95;;
39256;SDS011;24958;48.066;11.038;2022-10-16T01:34:14;3.05;;;1.85;;
39256;SDS011;24958;48.066;11.038;2022-10-16T01:36:42;4.35;;;2.00;;
39256;SDS011;24958;48.066;11.038;2022-10-16T01:39:11;2.42;;;1.80;;
39256;SDS011;24958;48.066;11.038;2022-10-16T01:41:39;3.22;;;2.00;;
39256;SDS011;24958;48.066;11.038;2022-10-16T01:44:25;1.88;;;1.77;;
39256;SDS011;24958;48.066;11.038;2022-10-16T01:46:52;2.40;;;2.17;;
39256;SDS011;24958;48.066;11.038;2022-10-16T01:49:18;3.78;;;1.90;;
39256;SDS011;24958;48.066;11.038;2022-10-16T01:51:46;2.42;;;1.67;;
39256;SDS011;24958;48.066;11.038;2022-10-16T01:54:14;3.55;;;1.88;;
39256;SDS011;24958;48.066;11.038;2022-10-16T01:56:41;1.75;;;1.50;;
39256;SDS011;24958;48.066;11.038;2022-10-16T01:59:12;3.58;;;1.90;;
39256;SDS011;24958;48.066;11.038;2022-10-16T02:01:41;2.00;;;1.80;;
39256;SDS011;24958;48.066;11.038;2022-10-16T02:04:19;2.63;;;1.73;;
39256;SDS011;24958;48.066;11.038;2022-10-16T02:06:47;3.65;;;1.65;;
39256;SDS011;24958;48.066;11.038;2022-10-16T02:09:13;3.67;;;1.88;;
39256;SDS011;24958;48.066;11.038;2022-10-16T02:11:41;3.58;;;1.77;;
39256;SDS011;24958;48.066;11.038;2022-10-16T02:14:08;3.58;;;2.60;;
39256;SDS011;24958;48.066;11.038;2022-10-16T02:16:44;5.65;;;3.38;;
39256;SDS011;24958;48.066;11.038;2022-10-16T02:19:10;2.45;;;2.25;;
39256;SDS011;24958;48.066;11.038;2022-10-16T02:21:56;3.83;;;1.73;;
39256;SDS011;24958;48.066;11.038;2022-10-16T02:24:25;2.80;;;2.38;;
39256;SDS011;24958;48.066;11.038;2022-10-16T02:29:21;2.75;;;2.22;;
39256;SDS011;24958;48.066;11.038;2022-10-16T02:31:49;2.10;;;1.67;;
39256;SDS011;24958;48.066;11.038;2022-10-16T02:34:16;2.38;;;1.80;;
39256;SDS011;24958;48.066;11.038;2022-10-16T02:36:43;1.73;;;1.63;;
39256;SDS011;24958;48.066;11.038;2022-10-16T02:39:10;2.08;;;1.90;;
39256;SDS011;24958;48.066;11.038;2022-10-16T02:41:36;3.28;;;1.90;;
39256;SDS011;24958;48.066;11.038;2022-10-16T02:44:03;2.50;;;2.30;;
39256;SDS011;24958;48.066;11.038;2022-10-16T02:46:29;5.22;;;2.05;;
39256;SDS011;24958;48.066;11.038;2022-10-16T02:48:55;4.90;;;2.10;;
39256;SDS011;24958;48.066;11.038;2022-10-16T02:51:21;2.83;;;2.10;;
39256;SDS011;24958;48.066;11.038;2022-10-16T02:53:47;3.15;;;1.92;;
39256;SDS011;24958;48.066;11.038;2022-10-16T02:56:13;3.83;;;1.92;;
39256;SDS011;24958;48.066;11.038;2022-10-16T02:58:39;2.03;;;1.70;;
39256;SDS011;24958;48.066;11.038;2022-10-16T03:01:05;3.92;;;2.05;;
39256;SDS011;24958;48.066;11.038;2022-10-16T03:03:31;4.30;;;2.43;;
39256;SDS011;24958;48.066;11.038;2022-10-16T03:05:57;2.95;;;2.30;;
39256;SDS011;24958;48.066;11.038;2022-10-16T03:08:23;3.87;;;1.97;;
39256;SDS011;24958;48.066;11.038;2022-10-16T03:10:50;2.20;;;2.00;;
39256;SDS011;24958;48.066;11.038;2022-10-16T03:13:16;2.83;;;2.20;;
39256;SDS011;24958;48.066;11.038;2022-10-16T03:15:45;2.83;;;2.22;;
39256;SDS011;24958;48.066;11.038;2022-10-16T03:18:11;3.38;;;1.90;;
39256;SDS011;24958;48.066;11.038;2022-10-16T03:20:37;4.95;;;2.53;;
39256;SDS011;24958;48.066;11.038;2022-10-16T03:23:03;2.97;;;2.13;;
39256;SDS011;24958;48.066;11.038;2022-10-16T03:25:29;3.90;;;2.28;;
39256;SDS011;24958;48.066;11.038;2022-10-16T03:27:55;2.42;;;2.20;;
39256;SDS011;24958;48.066;11.038;2022-10-16T03:30:21;2.78;;;2.03;;
39256;SDS011;24958;48.066;11.038;2022-10-16T03:32:47;3.63;;;2.28;;
39256;SDS011;24958;48.066;11.038;2022-10-16T03:35:13;4.53;;;2.05;;
39256;SDS011;24958;48.066;11.038;2022-10-16T03:37:39;3.40;;;1.92;;
39256;SDS011;24958;48.066;11.038;2022-10-16T03:40:05;2.97;;;1.95;;
39256;SDS011;24958;48.066;11.038;2022-10-16T03:42:31;2.10;;;1.90;;
39256;SDS011;24958;48.066;11.038;2022-10-16T03:44:57;2.42;;;2.10;;
39256;SDS011;24958;48.066;11.038;2022-10-16T03:47:23;2.78;;;1.85;;
39256;SDS011;24958;48.066;11.038;2022-10-16T03:49:49;2.03;;;1.75;;
39256;SDS011;24958;48.066;11.038;2022-10-16T03:52:15;1.90;;;1.58;;
39256;SDS011;24958;48.066;11.038;2022-10-16T03:54:41;4.20;;;2.05;;
39256;SDS011;24958;48.066;11.038;2022-10-16T03:57:07;2.53;;;2.20;;
39256;SDS011;24958;48.066;11.038;2022-10-16T03:59:33;2.05;;;1.95;;
39256;SDS011;24958;48.066;11.038;2022-10-16T04:01:59;3.17;;;2.10;;
39256;SDS011;24958;48.066;11.038;2022-10-16T04:04:25;2.88;;;2.00;;
39256;SDS011;24958;48.066;11.038;2022-10-16T04:06:51;2.40;;;1.92;;
39256;SDS011;24958;48.066;11.038;2022-10-16T04:09:17;2.30;;;1.85;;
39256;SDS011;24958;48.066;11.038;2022-10-16T04:11:43;2.85;;;1.70;;
39256;SDS011;24958;48.066;11.038;2022-10-16T04:14:09;2.45;;;1.60;;
39256;SDS011;24958;48.066;11.038;2022-10-16T04:16:35;2.92;;;2.00;;
39256;SDS011;24958;48.066;11.038;2022-10-16T04:19:01;2.22;;;1.80;;
39256;SDS011;24958;48.066;11.038;2022-10-16T04:21:27;6.07;;;2.20;;
39256;SDS011;24958;48.066;11.038;2022-10-16T04:23:53;4.03;;;2.70;;
39256;SDS011;24958;48.066;11.038;2022-10-16T04:26:19;3.17;;;2.20;;
39256;SDS011;24958;48.066;11.038;2022-10-16T04:28:45;2.22;;;2.03;;
39256;SDS011;24958;48.066;11.038;2022-10-16T04:31:11;3.45;;;2.67;;
39256;SDS011;24958;48.066;11.038;2022-10-16T04:33:37;4.15;;;2.42;;
39256;SDS011;24958;48.066;11.038;2022-10-16T04:36:03;2.97;;;2.78;;
39256;SDS011;24958;48.066;11.038;2022-10-16T04:38:29;2.72;;;1.90;;
39256;SDS011;24958;48.066;11.038;2022-10-16T04:40:55;2.10;;;1.90;;
39256;SDS011;24958;48.066;11.038;2022-10-16T04:43:22;3.97;;;1.90;;
39256;SDS011;24958;48.066;11.038;2022-10-16T04:45:48;2.80;;;1.95;;
39256;SDS011;24958;48.066;11.038;2022-10-16T04:48:15;1.80;;;1.70;;
39256;SDS011;24958;48.066;11.038;2022-10-16T04:50:41;2.03;;;1.80;;
39256;SDS011;24958;48.066;11.038;2022-10-16T04:53:07;2.40;;;2.20;;
39256;SDS011;24958;48.066;11.038;2022-10-16T04:55:33;2.60;;;1.90;;
39256;SDS011;24958;48.066;11.038;2022-10-16T04:58:00;3.08;;;2.05;;
39256;SDS011;24958;48.066;11.038;2022-10-16T05:00:26;3.30;;;1.90;;
39256;SDS011;24958;48.066;11.038;2022-10-16T05:02:52;2.10;;;2.00;;
39256;SDS011;24958;48.066;11.038;2022-10-16T05:05:18;2.65;;;2.40;;
39256;SDS011;24958;48.066;11.038;2022-10-16T05:07:48;1.88;;;1.73;;
39256;SDS011;24958;48.066;11.038;2022-10-16T05:10:14;2.92;;;2.05;;
39256;SDS011;24958;48.066;11.038;2022-10-16T05:12:40;2.13;;;1.92;;
39256;SDS011;24958;48.066;11.038;2022-10-16T05:15:06;4.55;;;2.10;;
39256;SDS011;24958;48.066;11.038;2022-10-16T05:17:33;4.35;;;1.90;;
39256;SDS011;24958;48.066;11.038;2022-10-16T05:19:58;5.30;;;2.10;;
39256;SDS011;24958;48.066;11.038;2022-10-16T05:22:24;3.08;;;2.05;;
39256;SDS011;24958;48.066;11.038;2022-10-16T05:24:51;2.63;;;1.85;;
39256;SDS011;24958;48.066;11.038;2022-10-16T05:27:16;2.50;;;2.22;;
39256;SDS011;24958;48.066;11.038;2022-10-16T05:29:46;2.10;;;2.00;;
39256;SDS011;24958;48.066;11.038;2022-10-16T05:32:13;2.22;;;1.70;;
39256;SDS011;24958;48.066;11.038;2022-10-16T05:34:39;2.45;;;1.50;;
39256;SDS011;24958;48.066;11.038;2022-10-16T05:37:05;3.95;;;1.77;;
39256;SDS011;24958;48.066;11.038;2022-10-16T05:39:31;3.50;;;1.92;;
39256;SDS011;24958;48.066;11.038;2022-10-16T05:42:01;3.03;;;1.90;;
39256;SDS011;24958;48.066;11.038;2022-10-16T05:44:27;2.47;;;1.70;;
39256;SDS011;24958;48.066;11.038;2022-10-16T05:46:53;3.05;;;1.88;;
39256;SDS011;24958;48.066;11.038;2022-10-16T05:49:19;2.40;;;1.90;;
39256;SDS011;24958;48.066;11.038;2022-10-16T05:51:45;3.08;;;1.90;;
39256;SDS011;24958;48.066;11.038;2022-10-16T05:54:11;1.90;;;1.65;;
39256;SDS011;24958;48.066;11.038;2022-10-16T05:56:37;2.75;;;1.63;;
39256;SDS011;24958;48.066;11.038;2022-10-16T05:59:04;2.33;;;1.75;;
39256;SDS011;24958;48.066;11.038;2022-10-16T06:01:30;1.60;;;1.45;;
39256;SDS011;24958;48.066;11.038;2022-10-16T06:03:56;2.22;;;1.63;;
39256;SDS011;24958;48.066;11.038;2022-10-16T06:06:23;3.25;;;1.65;;
39256;SDS011;24958;48.066;11.038;2022-10-16T06:08:51;1.50;;;1.40;;
39256;SDS011;24958;48.066;11.038;2022-10-16T06:11:22;2.25;;;1.70;;
39256;SDS011;24958;48.066;11.038;2022-10-16T06:13:49;2.40;;;1.52;;
39256;SDS011;24958;48.066;11.038;2022-10-16T06:16:15;1.65;;;1.55;;
39256;SDS011;24958;48.066;11.038;2022-10-16T06:18:41;1.40;;;1.20;;
39256;SDS011;24958;48.066;11.038;2022-10-16T06:21:08;4.18;;;1.70;;
39256;SDS011;24958;48.066;11.038;2022-10-16T06:23:34;1.48;;;1.30;;
39256;SDS011;24958;48.066;11.038;2022-10-16T06:26:10;1.98;;;1.55;;
39256;SDS011;24958;48.066;11.038;2022-10-16T06:28:37;1.65;;;1.52;;
39256;SDS011;24958;48.066;11.038;2022-10-16T06:31:04;3.90;;;1.90;;
39256;SDS011;24958;48.066;11.038;2022-10-16T06:33:30;3.38;;;1.60;;
39256;SDS011;24958;48.066;11.038;2022-10-16T06:36:06;2.13;;;1.50;;
39256;SDS011;24958;48.066;11.038;2022-10-16T06:38:33;2.13;;;1.40;;
39256;SDS011;24958;48.066;11.038;2022-10-16T06:40:59;4.47;;;1.70;;
39256;SDS011;24958;48.066;11.038;2022-10-16T06:43:25;2.85;;;1.42;;
39256;SDS011;24958;48.066;11.038;2022-10-16T06:45:55;3.05;;;1.50;;
39256;SDS011;24958;48.066;11.038;2022-10-16T06:48:22;4.20;;;1.80;;
39256;SDS011;24958;48.066;11.038;2022-10-16T06:53:23;1.88;;;1.60;;
39256;SDS011;24958;48.066;11.038;2022-10-16T06:55:49;1.60;;;1.50;;
39256;SDS011;24958;48.066;11.038;2022-10-16T06:58:16;2.47;;;1.63;;
39256;SDS011;24958;48.066;11.038;2022-10-16T07:00:42;1.83;;;1.42;;
39256;SDS011;24958;48.066;11.038;2022-10-16T07:03:07;3.42;;;1.60;;
39256;SDS011;24958;48.066;11.038;2022-10-16T07:05:37;3.85;;;1.58;;
39256;SDS011;24958;48.066;11.038;2022-10-16T07:08:03;3.13;;;2.05;;
39256;SDS011;24958;48.066;11.038;2022-10-16T07:10:30;6.65;;;5.10;;
39256;SDS011;24958;48.066;11.038;2022-10-16T07:12:56;4.20;;;3.80;;
39256;SDS011;24958;48.066;11.038;2022-10-16T07:15:22;3.67;;;2.63;;
39256;SDS011;24958;48.066;11.038;2022-10-16T07:17:49;2.47;;;2.00;;
39256;SDS011;24958;48.066;11.038;2022-10-16T07:20:15;3.00;;;1.70;;
39256;SDS011;24958;48.066;11.038;2022-10-16T07:22:41;1.95;;;1.48;;
39256;SDS011;24958;48.066;11.038;2022-10-16T07:25:07;1.65;;;1.55;;
39256;SDS011;24958;48.066;11.038;2022-10-16T07:27:33;1.70;;;1.60;;
39256;SDS011;24958;48.066;11.038;2022-10-16T07:29:59;2.20;;;1.80;;
39256;SDS011;24958;48.066;11.038;2022-10-16T07:32:25;1.60;;;1.50;;
39256;SDS011;24958;48.066;11.038;2022-10-16T07:34:52;2.83;;;2.10;;
39256;SDS011;24958;48.066;11.038;2022-10-16T07:37:18;2.03;;;1.60;;
39256;SDS011;24958;48.066;11.038;2022-10-16T07:39:44;3.35;;;1.70;;
39256;SDS011;24958;48.066;11.038;2022-10-16T07:42:10;2.15;;;1.60;;
39256;SDS011;24958;48.066;11.038;2022-10-16T07:44:36;2.40;;;2.20;;
39256;SDS011;24958;48.066;11.038;2022-10-16T07:47:02;4.28;;;3.88;;
39256;SDS011;24958;48.066;11.038;2022-10-16T07:49:28;3.90;;;3.60;;
39256;SDS011;24958;48.066;11.038;2022-10-16T07:51:54;3.33;;;2.53;;
39256;SDS011;24958;48.066;11.038;2022-10-16T07:54:20;3.10;;;2.50;;
39256;SDS011;24958;48.066;11.038;2022-10-16T07:56:46;2.45;;;2.00;;
39256;SDS011;24958;48.066;11.038;2022-10-16T07:59:12;2.25;;;1.90;;
39256;SDS011;24958;48.066;11.038;2022-10-16T08:01:38;3.03;;;1.95;;
39256;SDS011;24958;48.066;11.038;2022-10-16T08:04:04;2.05;;;1.90;;
39256;SDS011;24958;48.066;11.038;2022-10-16T08:06:34;3.13;;;1.83;;
39256;SDS011;24958;48.066;11.038;2022-10-16T08:09:00;3.40;;;2.10;;
39256;SDS011;24958;48.066;11.038;2022-10-16T08:11:26;1.95;;;1.85;;
39256;SDS011;24958;48.066;11.038;2022-10-16T08:13:52;2.60;;;2.10;;
39256;SDS011;24958;48.066;11.038;2022-10-16T08:16:18;2.50;;;2.03;;
39256;SDS011;24958;48.066;11.038;2022-10-16T08:18:44;2.42;;;2.15;;
39256;SDS011;24958;48.066;11.038;2022-10-16T08:21:15;3.92;;;2.00;;
39256;SDS011;24958;48.066;11.038;2022-10-16T08:23:42;2.42;;;2.20;;
39256;SDS011;24958;48.066;11.038;2022-10-16T08:26:09;3.50;;;2.22;;
39256;SDS011;24958;48.066;11.038;2022-10-16T08:28:35;2.45;;;2.25;;
39256;SDS011;24958;48.066;11.038;2022-10-16T08:31:09;3.08;;;2.28;;
39256;SDS011;24958;48.066;11.038;2022-10-16T08:33:35;2.30;;;2.10;;
39256;SDS011;24958;48.066;11.038;2022-10-16T08:36:02;2.25;;;2.05;;
39256;SDS011;24958;48.066;11.038;2022-10-16T08:38:28;2.65;;;2.40;;
39256;SDS011;24958;48.066;11.038;2022-10-16T08:40:56;3.25;;;2.20;;
39256;SDS011;24958;48.066;11.038;2022-10-16T08:46:21;2.70;;;2.50;;
39256;SDS011;24958;48.066;11.038;2022-10-16T08:48:51;2.28;;;2.08;;
39256;SDS011;24958;48.066;11.038;2022-10-16T08:51:24;2.53;;;2.33;;
39256;SDS011;24958;48.066;11.038;2022-10-16T08:54:03;2.35;;;2.15;;
39256;SDS011;24958;48.066;11.038;2022-10-16T08:56:30;4.10;;;3.47;;
39256;SDS011;24958;48.066;11.038;2022-10-16T08:58:57;3.65;;;3.20;;
39256;SDS011;24958;48.066;11.038;2022-10-16T09:01:24;3.22;;;2.55;;
39256;SDS011;24958;48.066;11.038;2022-10-16T09:06:39;3.03;;;2.33;;
39256;SDS011;24958;48.066;11.038;2022-10-16T09:09:24;2.30;;;2.10;;
39256;SDS011;24958;48.066;11.038;2022-10-16T09:14:32;2.30;;;2.10;;
39256;SDS011;24958;48.066;11.038;2022-10-16T09:17:07;2.95;;;2.30;;
39256;SDS011;24958;48.066;11.038;2022-10-16T09:19:41;3.42;;;2.58;;
39256;SDS011;24958;48.066;11.038;2022-10-16T09:22:14;2.33;;;2.20;;
39256;SDS011;24958;48.066;11.038;2022-10-16T09:24:40;3.30;;;2.70;;
39256;SDS011;24958;48.066;11.038;2022-10-16T09:27:08;2.78;;;2.50;;
39256;SDS011;24958;48.066;11.038;2022-10-16T09:29:35;2.25;;;2.05;;
39256;SDS011;24958;48.066;11.038;2022-10-16T09:32:10;5.20;;;3.33;;
39256;SDS011;24958;48.066;11.038;2022-10-16T09:34:37;3.00;;;2.25;;
39256;SDS011;24958;48.066;11.038;2022-10-16T09:37:07;3.10;;;2.47;;
39256;SDS011;24958;48.066;11.038;2022-10-16T09:39:48;2.40;;;2.20;;
39256;SDS011;24958;48.066;11.038;2022-10-16T09:42:18;2.58;;;2.20;;
39256;SDS011;24958;48.066;11.038;2022-10-16T09:44:51;2.28;;;2.08;;
39256;SDS011;24958;48.066;11.038;2022-10-16T09:47:19;2.38;;;2.17;;
39256;SDS011;24958;48.066;11.038;2022-10-16T09:49:57;2.60;;;2.40;;
39256;SDS011;24958;48.066;11.038;2022-10-16T09:52:25;2.42;;;2.22;;
39256;SDS011;24958;48.066;11.038;2022-10-16T09:57:20;3.03;;;2.50;;
39256;SDS011;24958;48.066;11.038;2022-10-16T09:59:53;2.67;;;2.40;;
39256;SDS011;24958;48.066;11.038;2022-10-16T10:02:20;2.22;;;2.03;;
39256;SDS011;24958;48.066;11.038;2022-10-16T10:04:50;2.20;;;2.00;;
39256;SDS011;24958;48.066;11.038;2022-10-16T10:07:21;2.28;;;2.15;;
39256;SDS011;24958;48.066;11.038;2022-10-16T10:09:49;2.67;;;2.10;;
39256;SDS011;24958;48.066;11.038;2022-10-16T10:14:45;2.30;;;2.10;;
39256;SDS011;24958;48.066;11.038;2022-10-16T10:22:22;2.50;;;2.30;;
39256;SDS011;24958;48.066;11.038;2022-10-16T10:25:07;2.22;;;2.03;;
39256;SDS011;24958;48.066;11.038;2022-10-16T10:40:56;1.83;;;1.60;;
39256;SDS011;24958;48.066;11.038;2022-10-16T10:43:29;1.70;;;1.58;;
39256;SDS011;24958;48.066;11.038;2022-10-16T10:45:59;1.67;;;1.58;;
39256;SDS011;24958;48.066;11.038;2022-10-16T10:51:06;1.98;;;1.60;;
39256;SDS011;24958;48.066;11.038;2022-10-16T10:53:45;1.70;;;1.60;;
39256;SDS011;24958;48.066;11.038;2022-10-16T10:58:46;1.40;;;1.30;;
39256;SDS011;24958;48.066;11.038;2022-10-16T11:01:16;1.60;;;1.33;;
39256;SDS011;24958;48.066;11.038;2022-10-16T11:06:19;1.48;;;1.30;;
39256;SDS011;24958;48.066;11.038;2022-10-16T11:08:53;1.80;;;1.70;;
39256;SDS011;24958;48.066;11.038;2022-10-16T11:17:18;1.25;;;1.05;;
39256;SDS011;24958;48.066;11.038;2022-10-16T11:19:51;1.10;;;1.00;;
39256;SDS011;24958;48.066;11.038;2022-10-16T11:22:34;0.90;;;0.90;;
39256;SDS011;24958;48.066;11.038;2022-10-16T11:25:04;1.30;;;1.20;;
39256;SDS011;24958;48.066;11.038;2022-10-16T11:30:12;2.08;;;1.10;;
39256;SDS011;24958;48.066;11.038;2022-10-16T11:35:25;1.27;;;1.17;;
39256;SDS011;24958;48.066;11.038;2022-10-16T11:37:53;1.83;;;1.00;;
39256;SDS011;24958;48.066;11.038;2022-10-16T11:40:25;1.48;;;1.20;;
39256;SDS011;24958;48.066;11.038;2022-10-16T11:43:04;0.88;;;0.88;;
39256;SDS011;24958;48.066;11.038;2022-10-16T11:45:39;1.15;;;1.05;;
39256;SDS011;24958;48.066;11.038;2022-10-16T11:48:18;1.17;;;1.08;;
39256;SDS011;24958;48.066;11.038;2022-10-16T11:50:52;1.08;;;1.00;;
39256;SDS011;24958;48.066;11.038;2022-10-16T11:55:45;2.25;;;1.10;;
39256;SDS011;24958;48.066;11.038;2022-10-16T12:03:40;1.02;;;1.00;;
39256;SDS011;24958;48.066;11.038;2022-10-16T12:06:25;1.10;;;1.00;;
39256;SDS011;24958;48.066;11.038;2022-10-16T12:08:54;1.50;;;1.20;;
39256;SDS011;24958;48.066;11.038;2022-10-16T12:11:31;1.02;;;1.00;;
39256;SDS011;24958;48.066;11.038;2022-10-16T12:14:07;1.00;;;0.90;;
39256;SDS011;24958;48.066;11.038;2022-10-16T12:19:21;0.80;;;0.80;;
39256;SDS011;24958;48.066;11.038;2022-10-16T12:21:47;1.33;;;0.90;;
39256;SDS011;24958;48.066;11.038;2022-10-16T12:24:34;0.90;;;0.90;;
39256;SDS011;24958;48.066;11.038;2022-10-16T12:27:01;1.10;;;1.00;;
39256;SDS011;24958;48.066;11.038;2022-10-16T12:29:30;0.80;;;0.80;;
39256;SDS011;24958;48.066;11.038;2022-10-16T12:31:58;1.27;;;1.05;;
39256;SDS011;24958;48.066;11.038;2022-10-16T12:34:42;1.85;;;1.10;;
39256;SDS011;24958;48.066;11.038;2022-10-16T12:37:10;0.95;;;0.95;;
39256;SDS011;24958;48.066;11.038;2022-10-16T12:39:37;1.10;;;0.88;;
39256;SDS011;24958;48.066;11.038;2022-10-16T12:42:04;1.70;;;1.20;;
39256;SDS011;24958;48.066;11.038;2022-10-16T12:44:34;1.45;;;0.98;;
39256;SDS011;24958;48.066;11.038;2022-10-16T12:47:00;1.10;;;1.00;;
39256;SDS011;24958;48.066;11.038;2022-10-16T12:49:36;0.90;;;0.90;;
39256;SDS011;24958;48.066;11.038;2022-10-16T12:52:04;1.20;;;1.10;;
39256;SDS011;24958;48.066;11.038;2022-10-16T13:04:43;1.38;;;1.00;;
39256;SDS011;24958;48.066;11.038;2022-10-16T13:07:17;1.33;;;0.85;;
39256;SDS011;24958;48.066;11.038;2022-10-16T13:09:51;1.35;;;0.90;;
39256;SDS011;24958;48.066;11.038;2022-10-16T13:15:07;1.48;;;1.10;;
39256;SDS011;24958;48.066;11.038;2022-10-16T13:27:59;0.80;;;0.80;;
39256;SDS011;24958;48.066;11.038;2022-10-16T13:30:30;1.33;;;1.00;;
39256;SDS011;24958;48.066;11.038;2022-10-16T13:33:10;1.95;;;1.10;;
39256;SDS011;24958;48.066;11.038;2022-10-16T13:35:46;0.93;;;0.80;;
39256;SDS011;24958;48.066;11.038;2022-10-16T13:40:48;1.17;;;0.80;;
39256;SDS011;24958;48.066;11.038;2022-10-16T13:43:14;1.52;;;1.00;;
39256;SDS011;24958;48.066;11.038;2022-10-16T13:45:41;0.85;;;0.85;;
39256;SDS011;24958;48.066;11.038;2022-10-16T13:48:09;1.20;;;1.00;;
39256;SDS011;24958;48.066;11.038;2022-10-16T13:50:38;1.13;;;1.05;;
39256;SDS011;24958;48.066;11.038;2022-10-16T13:53:13;1.50;;;1.00;;
39256;SDS011;24958;48.066;11.038;2022-10-16T13:55:39;1.25;;;1.00;;
39256;SDS011;24958;48.066;11.038;2022-10-16T13:58:11;1.63;;;0.90;;
39256;SDS011;24958;48.066;11.038;2022-10-16T14:00:38;1.05;;;0.95;;
39256;SDS011;24958;48.066;11.038;2022-10-16T14:03:05;1.45;;;1.08;;
39256;SDS011;24958;48.066;11.038;2022-10-16T14:05:32;1.73;;;1.30;;
39256;SDS011;24958;48.066;11.038;2022-10-16T14:07:58;1.95;;;1.10;;
39256;SDS011;24958;48.066;11.038;2022-10-16T14:13:04;1.45;;;1.00;;
39256;SDS011;24958;48.066;11.038;2022-10-16T14:15:31;1.17;;;1.08;;
39256;SDS011;24958;48.066;11.038;2022-10-16T14:17:58;0.90;;;0.90;;
39256;SDS011;24958;48.066;11.038;2022-10-16T14:20:25;1.23;;;1.00;;
39256;SDS011;24958;48.066;11.038;2022-10-16T14:22:59;0.90;;;0.90;;
39256;SDS011;24958;48.066;11.038;2022-10-16T14:25:27;1.10;;;0.90;;
39256;SDS011;24958;48.066;11.038;2022-10-16T14:27:58;0.80;;;0.80;;
39256;SDS011;24958;48.066;11.038;2022-10-16T14:30:24;1.75;;;1.17;;
39256;SDS011;24958;48.066;11.038;2022-10-16T14:32:57;1.88;;;0.90;;
39256;SDS011;24958;48.066;11.038;2022-10-16T14:35:25;2.15;;;1.10;;
39256;SDS011;24958;48.066;11.038;2022-10-16T14:37:51;1.02;;;0.93;;
39256;SDS011;24958;48.066;11.038;2022-10-16T14:40:18;2.00;;;1.05;;
39256;SDS011;24958;48.066;11.038;2022-10-16T14:42:44;1.60;;;1.08;;
39256;SDS011;24958;48.066;11.038;2022-10-16T14:45:10;1.20;;;1.00;;
39256;SDS011;24958;48.066;11.038;2022-10-16T14:47:37;2.08;;;1.00;;
39256;SDS011;24958;48.066;11.038;2022-10-16T14:50:12;0.88;;;0.80;;
39256;SDS011;24958;48.066;11.038;2022-10-16T14:52:38;0.90;;;0.90;;
39256;SDS011;24958;48.066;11.038;2022-10-16T14:55:04;1.45;;;0.90;;
39256;SDS011;24958;48.066;11.038;2022-10-16T14:57:31;1.35;;;1.10;;
39256;SDS011;24958;48.066;11.038;2022-10-16T14:59:59;1.60;;;0.95;;
39256;SDS011;24958;48.066;11.038;2022-10-16T15:02:29;2.00;;;1.10;;
39256;SDS011;24958;48.066;11.038;2022-10-16T15:04:55;1.00;;;1.00;;
39256;SDS011;24958;48.066;11.038;2022-10-16T15:07:21;2.08;;;1.00;;
39256;SDS011;24958;48.066;11.038;2022-10-16T15:09:47;1.98;;;1.02;;
39256;SDS011;24958;48.066;11.038;2022-10-16T15:12:13;1.83;;;1.00;;
39256;SDS011;24958;48.066;11.038;2022-10-16T15:14:39;2.15;;;1.20;;
39256;SDS011;24958;48.066;11.038;2022-10-16T15:17:05;2.15;;;1.20;;
39256;SDS011;24958;48.066;11.038;2022-10-16T15:19:31;1.65;;;1.20;;
39256;SDS011;24958;48.066;11.038;2022-10-16T15:21:57;1.85;;;1.10;;
39256;SDS011;24958;48.066;11.038;2022-10-16T15:24:23;1.30;;;1.20;;
39256;SDS011;24958;48.066;11.038;2022-10-16T15:26:49;3.50;;;1.23;;
39256;SDS011;24958;48.066;11.038;2022-10-16T15:29:15;2.38;;;1.17;;
39256;SDS011;24958;48.066;11.038;2022-10-16T15:31:41;2.20;;;1.20;;
39256;SDS011;24958;48.066;11.038;2022-10-16T15:34:08;1.95;;;1.20;;
39256;SDS011;24958;48.066;11.038;2022-10-16T15:36:35;2.75;;;1.58;;
39256;SDS011;24958;48.066;11.038;2022-10-16T15:39:05;2.67;;;1.23;;
39256;SDS011;24958;48.066;11.038;2022-10-16T15:41:35;2.45;;;1.40;;
39256;SDS011;24958;48.066;11.038;2022-10-16T15:44:01;1.83;;;1.52;;
39256;SDS011;24958;48.066;11.038;2022-10-16T15:46:27;2.75;;;1.20;;
39256;SDS011;24958;48.066;11.038;2022-10-16T15:48:56;1.48;;;1.30;;
39256;SDS011;24958;48.066;11.038;2022-10-16T15:51:22;1.48;;;1.30;;
39256;SDS011;24958;48.066;11.038;2022-10-16T15:53:48;1.83;;;1.17;;
39256;SDS011;24958;48.066;11.038;2022-10-16T15:56:15;2.05;;;1.52;;
39256;SDS011;24958;48.066;11.038;2022-10-16T15:58:42;1.23;;;1.13;;
39256;SDS011;24958;48.066;11.038;2022-10-16T16:01:08;2.65;;;1.30;;
39256;SDS011;24958;48.066;11.038;2022-10-16T16:03:36;1.90;;;1.17;;
39256;SDS011;24958;48.066;11.038;2022-10-16T16:06:04;2.60;;;1.10;;
39256;SDS011;24958;48.066;11.038;2022-10-16T16:08:30;3.97;;;1.20;;
39256;SDS011;24958;48.066;11.038;2022-10-16T16:10:59;2.67;;;1.50;;
39256;SDS011;24958;48.066;11.038;2022-10-16T16:13:26;2.30;;;1.35;;
39256;SDS011;24958;48.066;11.038;2022-10-16T16:15:52;2.67;;;1.30;;
39256;SDS011;24958;48.066;11.038;2022-10-16T16:18:18;2.83;;;1.60;;
39256;SDS011;24958;48.066;11.038;2022-10-16T16:20:44;2.10;;;1.30;;
39256;SDS011;24958;48.066;11.038;2022-10-16T16:23:10;1.70;;;1.17;;
39256;SDS011;24958;48.066;11.038;2022-10-16T16:25:36;3.50;;;1.55;;
39256;SDS011;24958;48.066;11.038;2022-10-16T16:28:02;2.10;;;1.60;;
39256;SDS011;24958;48.066;11.038;2022-10-16T16:30:28;3.40;;;1.83;;
39256;SDS011;24958;48.066;11.038;2022-10-16T16:32:54;3.10;;;1.60;;